Gulfport Biloxi International Airport
KGPT : now visible

Airfield :











YOU CAN JOIN US ON...

 
LOGIN :

Register | Disclaimer

   EN    FR    IT 

 









Legend :    VFR   Marginal VFR   IFR   Intensive IFR   Very Intensive IFR
Visi :
Ceiling :
>= 8 km
>= 3000ft
5 to 8 km
1000 to 3000 ft
1500m to 5 km
500 to 1000 ft
800 to 1500m
200 to 500 ft
< 800m
< 200 ft
Symbols :   Thunderstorms  Fog  Heavy snow  Heavy precipitations  Wind > 20 kt






- Airport Elevation : 28 ft
- IATA code : GPT


KGPT - Gulfport Biloxi International

CURRENT METAR :
  • 111953Z 13008KT 10SM SCT037 SCT070 24/18 A3001 RMK AO2 SLP161 T02390178

EXPIRED METARs :
  • 111853Z 16007KT 10SM OVC040 24/18 A3002 RMK AO2 SLP164 T02440178
  • 111753Z 11009KT 10SM FEW036 24/18 A3005 RMK AO2 SLP174 T02440178 10244 20128 58017

TAF KGPT
Valid from the 11 at 18:00 until the 12 at 18:00 UTC


111732Z 1118/1218 09006KT P6SM VCSH SKC
FM120800 34011KT P6SM -RA OVC015
FM121200 36023G38KT P6SM -RA OVC015
FM121600 36023G38KT P6SM BKN020



MET'MAP, your aeronautical weather chart ! - Copyright ORBIFLY December 2007 - Disclaimer

ORBIFLY MET'MAP TEAM :

Programming & Development : Alexandra Zaïnal
Concept & Development : Baudouin d'Aumeries
Co-Development & Prog : Marc-Olivier Méhu
Technical & hardware support : Manuel Goepfert

Contact : metmap@orbifly.com




SOURCES & CREDITS :

   NOAA       Earth
Advisory